createdAt,value
2022-11-16T00:00:25.788Z,7.90
2022-11-16T00:02:54.211Z,8.10
2022-11-16T00:05:27.989Z,8.10
2022-11-16T00:07:56.977Z,8.00
2022-11-16T00:10:26.097Z,7.80
2022-11-16T00:12:54.549Z,7.60
2022-11-16T00:15:23.104Z,7.40
2022-11-16T00:17:51.480Z,7.50
2022-11-16T00:20:19.964Z,7.40
2022-11-16T00:22:48.468Z,7.40
2022-11-16T00:25:16.973Z,7.20
2022-11-16T00:27:45.559Z,7.30
2022-11-16T00:30:14.409Z,7.30
2022-11-16T00:32:43.136Z,7.10
2022-11-16T00:35:11.688Z,7.10
2022-11-16T00:37:40.074Z,7.00
2022-11-16T00:40:09.356Z,7.00
2022-11-16T00:42:37.743Z,7.30
2022-11-16T00:45:06.705Z,6.80
2022-11-16T00:47:35.144Z,6.90
2022-11-16T00:50:03.746Z,6.90
2022-11-16T00:52:32.252Z,6.90
2022-11-16T00:55:00.714Z,6.70
2022-11-16T00:57:29.108Z,6.70
2022-11-16T00:59:57.593Z,6.90
2022-11-16T01:02:26.116Z,6.60
2022-11-16T01:04:54.528Z,6.40
2022-11-16T01:07:22.998Z,6.40
2022-11-16T01:09:51.531Z,6.40
2022-11-16T01:12:19.927Z,6.40
2022-11-16T01:14:49.368Z,6.40
2022-11-16T01:17:17.770Z,6.30
2022-11-16T01:19:46.129Z,6.40
2022-11-16T01:22:14.753Z,6.40
2022-11-16T01:24:43.252Z,6.40
2022-11-16T01:27:11.614Z,6.40
2022-11-16T01:29:40.173Z,6.40
2022-11-16T01:32:08.804Z,6.50
2022-11-16T01:34:37.444Z,6.40
2022-11-16T01:37:06.992Z,6.40
2022-11-16T01:39:35.419Z,6.30
2022-11-16T01:42:04.413Z,6.40
2022-11-16T01:44:35.859Z,6.40
2022-11-16T01:47:15.820Z,6.30
2022-11-16T01:49:50.824Z,6.20
2022-11-16T01:52:30.033Z,6.00
2022-11-16T01:54:58.647Z,6.10
2022-11-16T01:57:37.095Z,6.10
2022-11-16T02:00:08.917Z,6.10
2022-11-16T02:02:37.336Z,6.10
2022-11-16T02:05:06.922Z,6.00
2022-11-16T02:08:07.478Z,6.00
2022-11-16T02:11:07.491Z,6.10
2022-11-16T02:14:00.259Z,6.00
2022-11-16T02:16:35.745Z,6.10
2022-11-16T02:19:41.067Z,6.20
2022-11-16T02:22:24.236Z,6.40
2022-11-16T02:25:07.559Z,6.30
2022-11-16T02:28:20.871Z,6.30
2022-11-16T02:30:52.025Z,6.30
2022-11-16T02:33:26.595Z,6.50
2022-11-16T02:36:03.333Z,6.40
2022-11-16T02:38:37.312Z,6.10
2022-11-16T02:41:13.226Z,6.50
2022-11-16T02:43:48.533Z,6.50
2022-11-16T02:46:30.369Z,6.10
2022-11-16T02:49:03.223Z,6.10
2022-11-16T02:51:34.229Z,6.10
2022-11-16T02:54:09.773Z,6.10
2022-11-16T02:56:58.867Z,6.10
2022-11-16T02:59:37.861Z,6.10
2022-11-16T03:02:20.977Z,6.00
2022-11-16T03:04:54.620Z,6.00
2022-11-16T03:07:30.442Z,6.10
2022-11-16T03:10:01.410Z,6.10
2022-11-16T03:12:33.525Z,6.10
2022-11-16T03:15:07.285Z,6.10
2022-11-16T03:17:49.644Z,6.10
2022-11-16T03:20:23.321Z,6.10
2022-11-16T03:23:01.220Z,6.00
2022-11-16T03:25:48.301Z,6.00
2022-11-16T03:28:22.105Z,6.00
2022-11-16T03:31:08.436Z,6.10
2022-11-16T03:33:51.020Z,6.10
2022-11-16T03:36:23.412Z,6.10
2022-11-16T03:38:53.689Z,6.00
2022-11-16T03:41:25.442Z,6.00
2022-11-16T03:43:56.160Z,6.10
2022-11-16T03:46:24.540Z,6.00
2022-11-16T03:48:58.714Z,6.10
2022-11-16T03:51:27.452Z,6.00
2022-11-16T03:53:55.877Z,5.80
2022-11-16T03:56:24.569Z,5.80
2022-11-16T03:58:52.991Z,5.80
2022-11-16T04:01:21.497Z,5.80
2022-11-16T04:03:50.154Z,5.60
2022-11-16T04:06:36.887Z,5.70
2022-11-16T04:09:23.883Z,5.70
2022-11-16T04:12:10.680Z,5.80
2022-11-16T04:14:57.465Z,5.70
2022-11-16T04:17:45.507Z,5.70
2022-11-16T04:20:34.278Z,5.80
2022-11-16T04:23:34.207Z,5.70
2022-11-16T04:26:03.642Z,5.40
2022-11-16T04:28:37.973Z,5.50
2022-11-16T04:31:26.174Z,5.40
2022-11-16T04:34:14.249Z,5.50
2022-11-16T04:37:01.254Z,5.50
2022-11-16T04:39:30.649Z,5.40
2022-11-16T04:42:28.873Z,5.50
2022-11-16T04:45:15.910Z,5.50
2022-11-16T04:47:45.399Z,5.40
2022-11-16T04:50:14.927Z,5.50
2022-11-16T04:52:50.526Z,5.30
2022-11-16T04:55:22.904Z,5.40
2022-11-16T04:57:52.599Z,5.50
2022-11-16T05:00:22.484Z,5.40
2022-11-16T05:02:53.730Z,5.40
2022-11-16T05:05:26.961Z,5.50
2022-11-16T05:07:56.694Z,5.30
2022-11-16T05:10:26.527Z,5.50
2022-11-16T05:12:56.542Z,5.10
2022-11-16T05:15:34.048Z,5.20
2022-11-16T05:18:03.613Z,5.40
2022-11-16T05:20:51.026Z,5.20
2022-11-16T05:23:38.778Z,5.20
2022-11-16T05:26:11.741Z,5.00
2022-11-16T05:28:41.426Z,5.10
2022-11-16T05:31:14.177Z,5.20
2022-11-16T05:33:45.541Z,5.10
2022-11-16T05:36:15.795Z,5.20
2022-11-16T05:38:46.267Z,5.10
2022-11-16T05:41:15.848Z,5.10
2022-11-16T05:43:46.372Z,5.00
2022-11-16T05:46:19.584Z,5.20
2022-11-16T05:48:50.788Z,5.20
2022-11-16T05:51:21.709Z,5.10
2022-11-16T05:53:51.477Z,4.90
2022-11-16T05:56:21.541Z,5.20
2022-11-16T05:58:52.536Z,5.00
2022-11-16T06:01:24.394Z,5.10
2022-11-16T06:03:55.681Z,5.20
2022-11-16T06:06:29.633Z,4.90
2022-11-16T06:09:04.639Z,5.10
2022-11-16T06:11:37.936Z,5.10
2022-11-16T06:14:07.939Z,5.10
2022-11-16T06:16:38.871Z,4.70
2022-11-16T06:19:08.974Z,5.10
2022-11-16T06:21:39.614Z,4.70
2022-11-16T06:24:11.016Z,5.10
2022-11-16T06:26:47.101Z,4.90
2022-11-16T06:29:16.285Z,4.90
2022-11-16T06:31:46.103Z,4.80
2022-11-16T06:34:15.901Z,4.90
2022-11-16T06:36:47.969Z,4.90
2022-11-16T06:39:20.966Z,4.80
2022-11-16T06:41:56.435Z,4.90
2022-11-16T06:44:27.369Z,4.90
2022-11-16T06:46:58.124Z,4.90
2022-11-16T06:49:28.925Z,4.90
2022-11-16T06:51:58.769Z,4.80
2022-11-16T06:54:31.167Z,4.80
2022-11-16T06:57:00.980Z,4.70
2022-11-16T06:59:30.633Z,4.80
2022-11-16T07:02:00.573Z,4.90
2022-11-16T07:04:31.719Z,4.80
2022-11-16T07:07:01.456Z,4.90
2022-11-16T07:09:31.503Z,4.80
2022-11-16T07:12:00.439Z,4.70
2022-11-16T07:14:29.865Z,4.60
2022-11-16T07:17:01.902Z,4.90
2022-11-16T07:19:33.885Z,4.90
2022-11-16T07:22:03.181Z,4.80
2022-11-16T07:24:33.202Z,4.90
2022-11-16T07:27:05.943Z,4.80
2022-11-16T07:29:37.506Z,4.90
2022-11-16T07:32:06.219Z,4.90
2022-11-16T07:34:38.953Z,5.20
2022-11-16T07:37:08.043Z,5.00
2022-11-16T07:39:40.924Z,5.20
2022-11-16T07:42:13.309Z,4.90
2022-11-16T07:44:42.868Z,5.10
2022-11-16T07:47:12.149Z,5.10
2022-11-16T07:49:41.441Z,4.90
2022-11-16T07:52:11.787Z,5.10
2022-11-16T07:54:40.907Z,4.70
2022-11-16T07:57:09.524Z,4.80
2022-11-16T07:59:38.499Z,4.70
2022-11-16T08:02:07.875Z,4.60
2022-11-16T08:04:36.423Z,4.90
2022-11-16T08:07:04.846Z,4.90
2022-11-16T08:09:33.236Z,4.90
2022-11-16T08:12:01.620Z,4.70
2022-11-16T08:14:30.065Z,4.80
2022-11-16T08:16:58.495Z,4.90
2022-11-16T08:19:27.264Z,4.90
2022-11-16T08:21:55.683Z,4.90
2022-11-16T08:24:24.052Z,4.30
2022-11-16T08:26:52.388Z,4.80
2022-11-16T08:29:21.000Z,4.90
2022-11-16T08:31:49.396Z,4.60
2022-11-16T08:34:18.953Z,4.80
2022-11-16T08:36:47.812Z,4.80
2022-11-16T08:39:17.353Z,4.60
2022-11-16T08:41:46.862Z,4.50
2022-11-16T08:44:16.583Z,4.40
2022-11-16T08:46:46.346Z,4.60
2022-11-16T08:49:15.892Z,4.40
2022-11-16T08:51:44.641Z,4.60
2022-11-16T08:54:12.984Z,4.60
2022-11-16T08:56:41.786Z,4.60
2022-11-16T08:59:10.219Z,4.60
2022-11-16T09:01:39.794Z,4.60
2022-11-16T09:04:08.553Z,4.60
2022-11-16T09:06:37.285Z,4.20
2022-11-16T09:09:06.055Z,4.10
2022-11-16T09:11:34.679Z,4.50
2022-11-16T09:14:03.127Z,4.60
2022-11-16T09:16:31.508Z,4.50
2022-11-16T09:18:59.848Z,4.40
2022-11-16T09:21:30.074Z,4.60
2022-11-16T09:23:59.255Z,4.50
2022-11-16T09:26:28.379Z,4.30
2022-11-16T09:29:05.169Z,4.30
2022-11-16T09:31:38.200Z,4.00
2022-11-16T09:34:07.169Z,4.30
2022-11-16T09:36:35.948Z,4.10
2022-11-16T09:39:30.752Z,4.30
2022-11-16T09:42:25.884Z,4.20
2022-11-16T09:45:00.321Z,4.20
2022-11-16T09:47:51.144Z,4.10
2022-11-16T09:50:24.038Z,4.00
2022-11-16T09:52:54.977Z,4.20
2022-11-16T09:55:34.781Z,4.10
2022-11-16T09:58:08.971Z,4.30
2022-11-16T10:00:38.656Z,4.00
2022-11-16T10:03:17.096Z,3.90
2022-11-16T10:06:22.855Z,4.20
2022-11-16T10:08:53.335Z,4.30
2022-11-16T10:11:34.442Z,4.10
2022-11-16T10:14:45.252Z,4.20
2022-11-16T10:17:41.012Z,3.90
2022-11-16T10:20:37.000Z,3.80
2022-11-16T10:23:17.619Z,3.70
2022-11-16T10:25:47.862Z,4.00
2022-11-16T10:28:34.394Z,4.00
2022-11-16T10:31:33.548Z,3.70
2022-11-16T10:34:04.273Z,4.00
2022-11-16T10:36:36.716Z,4.00
2022-11-16T10:39:16.019Z,3.80
2022-11-16T10:41:51.692Z,3.70
2022-11-16T10:44:33.417Z,4.00
2022-11-16T10:47:22.164Z,3.70
2022-11-16T10:50:01.183Z,4.00
2022-11-16T10:52:29.681Z,3.70
2022-11-16T10:54:58.153Z,4.00
2022-11-16T10:57:27.344Z,4.00
2022-11-16T11:00:00.001Z,3.60
2022-11-16T11:02:32.660Z,4.00
2022-11-16T11:05:16.185Z,4.00
2022-11-16T11:07:56.826Z,3.70
2022-11-16T11:10:32.188Z,3.80
2022-11-16T11:13:20.737Z,4.00
2022-11-16T11:15:49.664Z,4.00
2022-11-16T11:18:20.189Z,3.90
2022-11-16T11:20:52.659Z,4.00
2022-11-16T11:23:24.888Z,3.70
2022-11-16T11:25:54.533Z,3.70
2022-11-16T11:28:31.681Z,3.80
2022-11-16T11:31:08.191Z,3.60
2022-11-16T11:33:44.922Z,3.80
2022-11-16T11:36:21.622Z,4.00
2022-11-16T11:39:01.152Z,3.70
2022-11-16T11:41:40.880Z,4.00
2022-11-16T11:44:15.023Z,3.60
2022-11-16T11:49:50.725Z,4.00
2022-11-16T11:52:26.845Z,3.80
2022-11-16T11:54:56.906Z,4.00
2022-11-16T11:57:26.559Z,3.40
2022-11-16T11:59:56.152Z,3.70
2022-11-16T12:02:30.457Z,3.70
2022-11-16T12:05:13.897Z,3.60
2022-11-16T12:08:08.483Z,3.40
2022-11-16T12:10:42.712Z,3.40
2022-11-16T12:13:34.887Z,3.80
2022-11-16T12:16:12.954Z,3.70
2022-11-16T12:19:09.957Z,3.10
2022-11-16T12:22:10.621Z,3.60
2022-11-16T12:24:47.904Z,3.40
2022-11-16T12:27:43.826Z,3.30
2022-11-16T12:30:22.203Z,3.50
2022-11-16T12:33:24.185Z,3.30
2022-11-16T12:36:02.044Z,3.40
2022-11-16T12:38:44.742Z,3.60
2022-11-16T12:41:27.996Z,3.10
2022-11-16T12:44:15.223Z,3.30
2022-11-16T12:47:01.847Z,3.20
2022-11-16T12:49:58.845Z,3.20
2022-11-16T12:52:49.341Z,3.30
2022-11-16T12:55:51.303Z,3.10
2022-11-16T12:58:47.333Z,3.10
2022-11-16T13:01:22.560Z,3.10
2022-11-16T13:04:17.120Z,3.40
2022-11-16T13:06:53.675Z,3.20
2022-11-16T13:09:33.547Z,3.30
2022-11-16T13:12:14.888Z,3.10
2022-11-16T13:14:57.022Z,3.40
2022-11-16T13:17:39.416Z,3.10
2022-11-16T13:20:32.018Z,3.10
2022-11-16T13:23:10.116Z,3.40
2022-11-16T13:25:49.248Z,3.30
2022-11-16T13:28:50.824Z,3.10
2022-11-16T13:31:42.429Z,3.10
2022-11-16T13:34:38.744Z,3.20
2022-11-16T13:37:38.352Z,3.30
2022-11-16T13:40:06.872Z,3.00
2022-11-16T13:43:03.924Z,2.90
2022-11-16T13:45:58.357Z,2.90
2022-11-16T13:48:38.761Z,2.90
2022-11-16T13:51:22.593Z,2.80
2022-11-16T13:56:53.155Z,2.80
2022-11-16T13:59:30.612Z,2.90
2022-11-16T14:02:02.270Z,2.60
2022-11-16T14:05:01.574Z,2.90
2022-11-16T14:07:36.003Z,2.70
2022-11-16T14:10:06.547Z,2.50
2022-11-16T14:12:54.356Z,2.80
2022-11-16T14:15:22.832Z,2.70
2022-11-16T14:17:59.068Z,2.60
2022-11-16T14:20:52.662Z,2.60
2022-11-16T14:23:24.047Z,2.50
2022-11-16T14:26:14.299Z,2.80
2022-11-16T14:29:13.998Z,2.70
2022-11-16T14:31:57.795Z,2.80
2022-11-16T14:34:33.722Z,2.70
2022-11-16T14:37:02.282Z,2.50
2022-11-16T14:39:44.284Z,2.80
2022-11-16T14:42:25.041Z,2.60
2022-11-16T14:45:01.757Z,2.80
2022-11-16T14:47:32.782Z,2.70
2022-11-16T14:50:01.157Z,2.50
2022-11-16T14:52:48.576Z,2.70
2022-11-16T14:55:23.441Z,2.60
2022-11-16T14:58:17.653Z,2.50
2022-11-16T15:01:18.961Z,2.40
2022-11-16T15:04:03.182Z,2.30
2022-11-16T15:06:50.368Z,2.50
2022-11-16T15:09:28.218Z,2.80
2022-11-16T15:12:16.244Z,2.80
2022-11-16T15:14:56.144Z,2.80
2022-11-16T15:17:31.870Z,2.50
2022-11-16T15:20:15.300Z,2.50
2022-11-16T15:22:46.072Z,2.60
2022-11-16T15:25:29.894Z,2.60
2022-11-16T15:28:01.359Z,2.50
2022-11-16T15:30:35.044Z,2.60
2022-11-16T15:33:29.484Z,2.50
2022-11-16T15:35:58.857Z,2.70
2022-11-16T15:38:38.279Z,2.50
2022-11-16T15:41:07.447Z,2.80
2022-11-16T15:44:11.892Z,2.80
2022-11-16T15:46:37.248Z,2.70
2022-11-16T15:49:09.281Z,2.80
2022-11-16T15:51:44.473Z,2.60
2022-11-16T15:54:55.655Z,3.10
2022-11-16T15:57:25.232Z,2.90
2022-11-16T15:59:56.114Z,2.90
2022-11-16T16:02:30.655Z,2.80
2022-11-16T16:04:59.083Z,3.00
2022-11-16T16:08:00.391Z,2.90
2022-11-16T16:10:28.910Z,3.00
2022-11-16T16:13:00.268Z,2.90
2022-11-16T16:15:32.028Z,2.90
2022-11-16T16:18:01.354Z,3.40
2022-11-16T16:20:32.455Z,3.30
2022-11-16T16:23:14.022Z,3.10
2022-11-16T16:25:47.512Z,3.30
2022-11-16T16:28:18.636Z,3.20
2022-11-16T16:30:46.966Z,3.50
2022-11-16T16:33:22.772Z,3.40
2022-11-16T16:35:51.767Z,3.80
2022-11-16T16:38:20.169Z,3.70
2022-11-16T16:40:48.619Z,4.60
2022-11-16T16:43:17.337Z,4.60
2022-11-16T16:45:46.540Z,4.50
2022-11-16T16:48:15.523Z,4.90
2022-11-16T16:50:44.948Z,4.70
2022-11-16T16:53:16.799Z,5.10
2022-11-16T16:55:50.400Z,5.20
2022-11-16T16:58:20.528Z,5.10
2022-11-16T17:00:59.857Z,5.10
2022-11-16T17:03:32.213Z,4.80
2022-11-16T17:06:10.817Z,4.70
2022-11-16T17:08:40.568Z,4.70
2022-11-16T17:11:12.069Z,4.60
2022-11-16T17:13:44.173Z,4.80
2022-11-16T17:16:17.467Z,4.70
2022-11-16T17:18:47.693Z,4.60
2022-11-16T17:21:17.376Z,4.80
2022-11-16T17:23:50.062Z,4.40
2022-11-16T17:26:21.571Z,4.80
2022-11-16T17:28:56.278Z,4.80
2022-11-16T17:31:28.733Z,4.80
2022-11-16T17:34:04.186Z,4.80
2022-11-16T17:36:43.176Z,4.80
2022-11-16T17:39:12.002Z,4.90
2022-11-16T17:41:42.695Z,4.90
2022-11-16T17:44:21.218Z,4.90
2022-11-16T17:46:58.128Z,4.80
2022-11-16T17:49:28.102Z,4.90
2022-11-16T17:51:58.404Z,5.00
2022-11-16T17:54:27.631Z,5.10
2022-11-16T17:56:57.307Z,5.10
2022-11-16T17:59:30.301Z,5.20
2022-11-16T18:01:59.478Z,5.10
2022-11-16T18:04:28.302Z,5.10
2022-11-16T18:06:57.203Z,5.40
2022-11-16T18:09:25.919Z,5.20
2022-11-16T18:11:54.405Z,5.30
2022-11-16T18:14:23.034Z,5.20
2022-11-16T18:16:51.639Z,5.50
2022-11-16T18:19:20.978Z,5.60
2022-11-16T18:21:49.902Z,5.50
2022-11-16T18:24:18.366Z,5.40
2022-11-16T18:26:46.873Z,5.40
2022-11-16T18:29:16.788Z,5.60
2022-11-16T18:31:45.183Z,5.50
2022-11-16T18:34:15.314Z,5.60
2022-11-16T18:36:43.827Z,5.50
2022-11-16T18:39:12.249Z,5.70
2022-11-16T18:41:51.745Z,5.80
2022-11-16T18:44:23.236Z,5.60
2022-11-16T18:46:51.626Z,5.70
2022-11-16T18:49:20.060Z,5.70
2022-11-16T18:51:48.436Z,5.80
2022-11-16T18:54:16.817Z,5.80
2022-11-16T18:56:45.241Z,5.80
2022-11-16T18:59:13.647Z,5.70
2022-11-16T19:01:42.067Z,5.60
2022-11-16T19:04:11.716Z,5.90
2022-11-16T19:06:40.111Z,6.10
2022-11-16T19:09:10.499Z,6.00
2022-11-16T19:11:39.190Z,5.80
2022-11-16T19:14:08.457Z,5.60
2022-11-16T19:16:38.253Z,6.10
2022-11-16T19:19:08.004Z,6.00
2022-11-16T19:21:36.368Z,6.00
2022-11-16T19:24:07.599Z,6.10
2022-11-16T19:26:35.980Z,5.90
2022-11-16T19:29:05.065Z,6.10
2022-11-16T19:31:34.054Z,6.00
2022-11-16T19:34:06.329Z,6.40
2022-11-16T19:36:36.948Z,6.40
2022-11-16T19:39:06.668Z,6.00
2022-11-16T19:41:35.222Z,6.00
2022-11-16T19:44:04.069Z,6.20
2022-11-16T19:46:34.584Z,6.10
2022-11-16T19:49:03.674Z,6.30
2022-11-16T19:51:34.810Z,6.50
2022-11-16T19:54:04.977Z,6.40
2022-11-16T19:56:33.517Z,6.40
2022-11-16T19:59:03.176Z,6.40
2022-11-16T20:01:32.287Z,6.30
2022-11-16T20:04:04.391Z,6.10
2022-11-16T20:06:36.388Z,6.30
2022-11-16T20:09:10.348Z,6.40
2022-11-16T20:11:42.528Z,6.40
2022-11-16T20:14:14.778Z,6.40
2022-11-16T20:16:47.935Z,6.40
2022-11-16T20:19:16.690Z,6.40
2022-11-16T20:21:46.258Z,6.40
2022-11-16T20:24:18.939Z,6.40
2022-11-16T20:26:50.329Z,6.40
2022-11-16T20:29:20.986Z,6.40
2022-11-16T20:31:49.730Z,6.40
2022-11-16T20:34:20.916Z,6.10
2022-11-16T20:36:51.668Z,6.10
2022-11-16T20:39:22.180Z,6.10
2022-11-16T20:41:50.572Z,6.40
2022-11-16T20:44:22.764Z,6.30
2022-11-16T20:46:53.993Z,6.30
2022-11-16T20:49:22.399Z,6.20
2022-11-16T20:51:52.151Z,6.30
2022-11-16T20:54:20.531Z,6.40
2022-11-16T20:56:51.925Z,6.50
2022-11-16T20:59:20.543Z,6.20
2022-11-16T21:01:53.208Z,6.20
2022-11-16T21:04:21.717Z,6.10
2022-11-16T21:06:50.205Z,6.40
2022-11-16T21:09:23.364Z,6.40
2022-11-16T21:12:10.071Z,6.40
2022-11-16T21:14:38.446Z,6.10
2022-11-16T21:17:06.827Z,6.20
2022-11-16T21:19:35.232Z,6.50
2022-11-16T21:22:03.692Z,6.30
2022-11-16T21:24:32.985Z,6.40
2022-11-16T21:27:01.422Z,6.30
2022-11-16T21:29:29.940Z,6.40
2022-11-16T21:31:58.260Z,6.30
2022-11-16T21:34:28.656Z,6.40
2022-11-16T21:36:57.084Z,6.60
2022-11-16T21:39:26.029Z,6.40
2022-11-16T21:41:54.416Z,6.40
2022-11-16T21:44:22.892Z,6.20
2022-11-16T21:46:51.226Z,6.30
2022-11-16T21:49:19.662Z,6.40
2022-11-16T21:51:48.217Z,6.40
2022-11-16T21:54:16.596Z,6.40
2022-11-16T21:56:45.067Z,6.20
2022-11-16T21:59:13.505Z,6.40
2022-11-16T22:02:00.164Z,6.30
2022-11-16T22:04:47.078Z,6.40
2022-11-16T22:07:34.576Z,6.40
2022-11-16T22:10:13.474Z,6.00
2022-11-16T22:12:41.840Z,6.40
2022-11-16T22:15:10.626Z,6.10
2022-11-16T22:17:46.360Z,6.10
2022-11-16T22:20:14.717Z,6.10
2022-11-16T22:22:43.135Z,6.10
2022-11-16T22:25:14.669Z,6.10
2022-11-16T22:28:13.469Z,6.00
2022-11-16T22:30:31.436Z,6.00
2022-11-16T22:32:59.761Z,6.00
2022-11-16T22:35:28.120Z,6.10
2022-11-16T22:37:56.996Z,6.10
2022-11-16T22:40:25.377Z,6.10
2022-11-16T22:42:57.197Z,5.60
2022-11-16T22:45:26.251Z,5.70
2022-11-16T22:47:55.001Z,5.70
2022-11-16T22:50:24.857Z,5.80
2022-11-16T22:52:53.337Z,5.70
2022-11-16T22:55:21.710Z,5.60
2022-11-16T22:57:50.119Z,5.60
2022-11-16T23:00:19.224Z,5.60
2022-11-16T23:02:47.685Z,5.50
2022-11-16T23:05:16.173Z,5.40
2022-11-16T23:07:44.800Z,5.40
2022-11-16T23:10:13.207Z,5.40
2022-11-16T23:12:59.852Z,5.40
2022-11-16T23:15:49.579Z,5.50
2022-11-16T23:18:20.376Z,5.30
2022-11-16T23:21:07.039Z,5.20
2022-11-16T23:23:53.973Z,5.10
2022-11-16T23:26:43.225Z,4.90
2022-11-16T23:29:12.417Z,5.20
2022-11-16T23:31:40.852Z,5.10
2022-11-16T23:34:09.218Z,5.20
2022-11-16T23:36:37.671Z,4.80
2022-11-16T23:39:06.142Z,4.90
2022-11-16T23:42:09.895Z,4.90
2022-11-16T23:44:38.287Z,4.80
2022-11-16T23:47:06.748Z,4.60
2022-11-16T23:49:35.228Z,4.60
2022-11-16T23:52:03.706Z,4.80
2022-11-16T23:54:32.292Z,4.80
2022-11-16T23:57:00.776Z,4.80
2022-11-16T23:59:29.175Z,4.60
